createdAt,value
2023-01-01T00:00:52.150Z,4.00
2023-01-01T00:03:20.632Z,5.03
2023-01-01T00:05:49.469Z,6.88
2023-01-01T00:08:18.120Z,6.20
2023-01-01T00:10:46.309Z,6.90
2023-01-01T00:13:14.734Z,6.05
2023-01-01T00:15:44.456Z,6.20
2023-01-01T00:18:12.816Z,4.55
2023-01-01T00:20:41.604Z,3.35
2023-01-01T00:23:10.037Z,3.45
2023-01-01T00:25:38.366Z,2.88
2023-01-01T00:28:07.236Z,2.88
2023-01-01T00:30:35.551Z,10.13
2023-01-01T00:33:05.507Z,3.70
2023-01-01T00:35:35.045Z,3.20
2023-01-01T00:38:03.677Z,8.15
2023-01-01T00:40:31.897Z,14.02
2023-01-01T00:43:00.202Z,5.28
2023-01-01T00:45:28.362Z,3.28
2023-01-01T00:47:56.648Z,3.20
2023-01-01T00:50:26.041Z,3.13
2023-01-01T00:52:54.700Z,2.95
2023-01-01T00:55:23.432Z,3.60
2023-01-01T00:57:51.530Z,2.90
2023-01-01T01:00:20.385Z,2.63
2023-01-01T01:02:48.649Z,4.53
2023-01-01T01:05:17.097Z,3.78
2023-01-01T01:07:47.150Z,3.15
2023-01-01T01:10:15.597Z,2.47
2023-01-01T01:12:43.874Z,2.85
2023-01-01T01:15:12.758Z,2.33
2023-01-01T01:17:41.189Z,2.90
2023-01-01T01:20:11.091Z,2.53
2023-01-01T01:22:39.620Z,2.95
2023-01-01T01:25:11.261Z,8.82
2023-01-01T01:27:40.131Z,3.42
2023-01-01T01:30:09.807Z,4.95
2023-01-01T01:32:38.198Z,3.40
2023-01-01T01:35:07.069Z,3.97
2023-01-01T01:37:35.658Z,2.53
2023-01-01T01:40:04.193Z,3.15
2023-01-01T01:42:34.080Z,2.90
2023-01-01T01:45:03.780Z,2.72
2023-01-01T01:47:36.964Z,2.45
2023-01-01T01:50:10.617Z,2.85
2023-01-01T01:52:42.732Z,3.60
2023-01-01T01:55:11.891Z,2.58
2023-01-01T01:57:42.960Z,2.92
2023-01-01T02:00:13.015Z,3.17
2023-01-01T02:02:49.539Z,2.70
2023-01-01T02:05:20.365Z,2.40
2023-01-01T02:07:48.872Z,2.75
2023-01-01T02:10:17.483Z,2.40
2023-01-01T02:12:47.323Z,3.05
2023-01-01T02:15:15.813Z,3.40
2023-01-01T02:17:52.509Z,2.90
2023-01-01T02:20:30.315Z,2.80
2023-01-01T02:23:17.122Z,2.50
2023-01-01T02:25:57.178Z,1.75
2023-01-01T02:28:42.967Z,2.50
2023-01-01T02:31:21.238Z,2.85
2023-01-01T02:33:53.672Z,2.90
2023-01-01T02:36:25.038Z,3.15
2023-01-01T02:38:58.265Z,3.00
2023-01-01T02:41:29.701Z,3.25
2023-01-01T02:46:32.858Z,2.53
2023-01-01T02:49:07.961Z,2.78
2023-01-01T02:51:47.997Z,2.55
2023-01-01T02:54:26.219Z,2.88
2023-01-01T02:57:05.951Z,3.28
2023-01-01T03:03:19.808Z,3.00
2023-01-01T03:06:14.962Z,2.20
2023-01-01T03:08:54.419Z,2.47
2023-01-01T03:11:25.888Z,2.78
2023-01-01T03:14:00.780Z,2.40
2023-01-01T03:16:35.952Z,2.70
2023-01-01T03:19:13.213Z,2.55
2023-01-01T03:21:49.694Z,2.65
2023-01-01T03:24:23.977Z,2.40
2023-01-01T03:26:56.695Z,3.05
2023-01-01T03:29:27.325Z,2.58
2023-01-01T03:32:00.111Z,2.25
2023-01-01T03:34:34.111Z,3.63
2023-01-01T03:37:07.953Z,3.33
2023-01-01T03:39:39.401Z,3.50
2023-01-01T03:42:18.240Z,2.25
2023-01-01T03:44:50.282Z,4.25
2023-01-01T03:47:20.744Z,2.55
2023-01-01T03:49:49.417Z,2.10
2023-01-01T03:52:32.094Z,2.53
2023-01-01T03:55:07.766Z,2.53
2023-01-01T03:57:45.194Z,2.47
2023-01-01T04:00:16.693Z,2.50
2023-01-01T04:02:53.877Z,2.75
2023-01-01T04:05:23.240Z,3.25
2023-01-01T04:07:53.050Z,2.60
2023-01-01T04:10:22.209Z,2.42
2023-01-01T04:12:52.853Z,3.65
2023-01-01T04:15:24.287Z,2.10
2023-01-01T04:17:54.702Z,2.38
2023-01-01T04:20:23.877Z,2.45
2023-01-01T04:22:53.222Z,2.70
2023-01-01T04:25:21.611Z,2.55
2023-01-01T04:27:50.309Z,3.05
2023-01-01T04:30:19.778Z,2.63
2023-01-01T04:32:48.678Z,2.50
2023-01-01T04:35:18.909Z,2.50
2023-01-01T04:37:47.383Z,2.42
2023-01-01T04:40:15.935Z,3.28
2023-01-01T04:42:44.554Z,3.38
2023-01-01T04:45:15.529Z,2.60
2023-01-01T04:47:44.706Z,2.60
2023-01-01T04:50:13.151Z,2.15
2023-01-01T04:52:42.914Z,3.30
2023-01-01T04:55:11.356Z,2.33
2023-01-01T04:57:39.909Z,2.40
2023-01-01T05:00:09.554Z,1.98
2023-01-01T05:02:37.904Z,2.45
2023-01-01T05:05:06.503Z,2.40
2023-01-01T05:07:34.936Z,3.22
2023-01-01T05:10:05.182Z,2.70
2023-01-01T05:12:33.332Z,3.10
2023-01-01T05:15:01.987Z,2.40
2023-01-01T05:17:30.744Z,2.75
2023-01-01T05:19:59.833Z,3.00
2023-01-01T05:22:28.121Z,2.42
2023-01-01T05:24:56.371Z,2.20
2023-01-01T05:27:26.513Z,2.58
2023-01-01T05:29:54.688Z,2.50
2023-01-01T05:32:23.191Z,3.10
2023-01-01T05:34:51.700Z,2.60
2023-01-01T05:37:20.167Z,2.47
2023-01-01T05:39:49.459Z,2.55
2023-01-01T05:42:19.144Z,3.03
2023-01-01T05:44:48.732Z,3.40
2023-01-01T05:47:18.682Z,2.88
2023-01-01T05:49:48.241Z,2.70
2023-01-01T05:52:24.610Z,3.72
2023-01-01T05:54:54.796Z,3.30
2023-01-01T05:57:23.371Z,3.35
2023-01-01T05:59:53.050Z,3.80
2023-01-01T06:02:22.089Z,3.28
2023-01-01T06:04:51.296Z,3.58
2023-01-01T06:07:19.564Z,3.88
2023-01-01T06:09:47.764Z,3.10
2023-01-01T06:12:16.007Z,3.20
2023-01-01T06:14:44.538Z,3.85
2023-01-01T06:17:14.167Z,3.38
2023-01-01T06:19:42.679Z,6.10
2023-01-01T06:22:11.019Z,3.97
2023-01-01T06:24:39.573Z,3.00
2023-01-01T06:27:08.103Z,3.22
2023-01-01T06:29:36.420Z,2.40
2023-01-01T06:32:04.940Z,3.33
2023-01-01T06:34:34.836Z,3.40
2023-01-01T06:37:06.720Z,3.83
2023-01-01T06:39:35.861Z,3.42
2023-01-01T06:42:04.297Z,3.55
2023-01-01T06:44:32.948Z,3.85
2023-01-01T06:47:01.318Z,3.35
2023-01-01T06:49:29.933Z,4.25
2023-01-01T06:52:00.123Z,3.65
2023-01-01T06:54:28.578Z,3.38
2023-01-01T06:56:57.074Z,3.38
2023-01-01T06:59:25.767Z,4.97
2023-01-01T07:01:54.425Z,3.58
2023-01-01T07:04:23.334Z,4.05
2023-01-01T07:06:51.704Z,3.40
2023-01-01T07:09:21.837Z,5.00
2023-01-01T07:11:50.110Z,3.65
2023-01-01T07:14:18.730Z,4.07
2023-01-01T07:16:47.113Z,4.00
2023-01-01T07:19:15.571Z,4.40
2023-01-01T07:21:46.188Z,4.15
2023-01-01T07:24:17.075Z,4.32
2023-01-01T07:26:47.050Z,3.90
2023-01-01T07:29:15.987Z,4.03
2023-01-01T07:31:45.739Z,4.63
2023-01-01T07:34:16.774Z,4.80
2023-01-01T07:36:45.281Z,3.72
2023-01-01T07:39:13.673Z,4.07
2023-01-01T07:41:42.219Z,5.00
2023-01-01T07:44:12.232Z,4.10
2023-01-01T07:46:40.580Z,4.20
2023-01-01T07:49:09.592Z,4.43
2023-01-01T07:51:38.534Z,4.20
2023-01-01T07:54:07.785Z,4.10
2023-01-01T07:56:36.637Z,4.90
2023-01-01T07:59:05.299Z,3.85
2023-01-01T08:01:37.046Z,4.25
2023-01-01T08:04:06.519Z,3.88
2023-01-01T08:06:35.040Z,3.97
2023-01-01T08:09:03.863Z,4.03
2023-01-01T08:11:32.391Z,4.38
2023-01-01T08:14:00.937Z,4.63
2023-01-01T08:16:29.197Z,3.85
2023-01-01T08:18:59.869Z,4.45
2023-01-01T08:21:28.249Z,4.38
2023-01-01T08:23:56.961Z,4.55
2023-01-01T08:26:30.467Z,4.50
2023-01-01T08:28:59.344Z,4.00
2023-01-01T08:31:28.298Z,6.25
2023-01-01T08:33:58.649Z,4.28
2023-01-01T08:36:27.390Z,3.83
2023-01-01T08:38:56.048Z,4.55
2023-01-01T08:41:24.678Z,4.65
2023-01-01T08:43:53.079Z,4.68
2023-01-01T08:46:21.574Z,3.90
2023-01-01T08:48:50.028Z,5.07
2023-01-01T08:51:20.350Z,4.57
2023-01-01T08:53:51.269Z,4.60
2023-01-01T08:56:21.037Z,5.07
2023-01-01T08:58:50.304Z,5.05
2023-01-01T09:01:21.876Z,4.65
2023-01-01T09:03:50.661Z,4.78
2023-01-01T09:06:20.819Z,4.50
2023-01-01T09:08:49.311Z,5.13
2023-01-01T09:11:24.142Z,4.60
2023-01-01T09:13:53.812Z,5.00
2023-01-01T09:16:23.453Z,4.75
2023-01-01T09:18:52.223Z,4.80
2023-01-01T09:21:22.689Z,5.07
2023-01-01T09:23:51.165Z,4.13
2023-01-01T09:26:19.952Z,4.35
2023-01-01T09:28:48.409Z,5.22
2023-01-01T09:31:16.850Z,5.13
2023-01-01T09:33:46.131Z,5.25
2023-01-01T09:36:17.313Z,4.78
2023-01-01T09:38:51.539Z,4.38
2023-01-01T09:41:29.003Z,4.43
2023-01-01T09:44:09.597Z,4.00
2023-01-01T09:46:38.287Z,4.18
2023-01-01T09:49:16.228Z,4.65
2023-01-01T09:51:55.683Z,5.43
2023-01-01T09:54:30.777Z,5.28
2023-01-01T09:57:01.573Z,4.68
2023-01-01T09:59:30.327Z,4.70
2023-01-01T10:02:05.303Z,4.97
2023-01-01T10:04:53.342Z,5.40
2023-01-01T10:07:31.119Z,5.00
2023-01-01T10:10:11.458Z,5.45
2023-01-01T10:12:49.663Z,5.72
2023-01-01T10:15:22.845Z,5.15
2023-01-01T10:17:56.137Z,4.88
2023-01-01T10:20:29.945Z,4.60
2023-01-01T10:23:05.326Z,4.20
2023-01-01T10:25:36.217Z,5.63
2023-01-01T10:28:09.607Z,4.50
2023-01-01T10:30:38.812Z,5.00
2023-01-01T10:33:14.081Z,5.00
2023-01-01T10:35:47.457Z,5.53
2023-01-01T10:38:24.025Z,4.65
2023-01-01T10:40:58.028Z,4.95
2023-01-01T10:43:27.023Z,5.13
2023-01-01T10:45:58.303Z,5.97
2023-01-01T10:48:30.637Z,5.22
2023-01-01T10:51:03.417Z,7.13
2023-01-01T10:53:34.513Z,4.70
2023-01-01T10:56:13.608Z,5.95
2023-01-01T10:58:45.787Z,6.45
2023-01-01T11:01:22.394Z,5.40
2023-01-01T11:03:56.259Z,5.07
2023-01-01T11:06:26.990Z,5.95
2023-01-01T11:08:57.122Z,4.80
2023-01-01T11:11:34.311Z,4.45
2023-01-01T11:14:06.349Z,5.38
2023-01-01T11:16:39.976Z,5.25
2023-01-01T11:19:10.450Z,5.22
2023-01-01T11:21:47.452Z,5.18
2023-01-01T11:24:22.277Z,5.53
2023-01-01T11:26:55.361Z,4.88
2023-01-01T11:29:29.939Z,5.20
2023-01-01T11:32:01.019Z,5.88
2023-01-01T11:34:33.294Z,5.28
2023-01-01T11:37:25.425Z,5.70
2023-01-01T11:39:56.206Z,5.28
2023-01-01T11:42:29.266Z,4.90
2023-01-01T11:45:00.365Z,5.82
2023-01-01T11:47:32.080Z,4.90
2023-01-01T11:50:05.956Z,4.43
2023-01-01T11:52:40.674Z,4.50
2023-01-01T11:55:20.071Z,5.10
2023-01-01T11:57:59.034Z,4.57
2023-01-01T12:00:30.219Z,5.75
2023-01-01T12:03:02.620Z,4.88
2023-01-01T12:05:43.735Z,4.88
2023-01-01T12:08:20.365Z,6.43
2023-01-01T12:10:53.391Z,7.20
2023-01-01T12:13:28.221Z,5.53
2023-01-01T12:16:07.481Z,4.03
2023-01-01T12:18:45.050Z,5.55
2023-01-01T12:21:19.378Z,5.15
2023-01-01T12:23:48.165Z,4.95
2023-01-01T12:26:23.912Z,5.00
2023-01-01T12:29:30.788Z,4.70
2023-01-01T12:32:08.716Z,4.72
2023-01-01T12:34:45.083Z,4.88
2023-01-01T12:37:22.103Z,4.55
2023-01-01T12:40:25.043Z,6.22
2023-01-01T12:43:03.325Z,4.68
2023-01-01T12:45:52.073Z,5.00
2023-01-01T12:48:35.324Z,3.90
2023-01-01T12:51:15.058Z,4.97
2023-01-01T12:53:53.977Z,5.50
2023-01-01T12:56:32.498Z,3.95
2023-01-01T12:59:08.486Z,4.97
2023-01-01T13:01:42.049Z,5.15
2023-01-01T13:04:16.711Z,4.65
2023-01-01T13:06:51.333Z,5.38
2023-01-01T13:09:24.316Z,5.47
2023-01-01T13:11:57.919Z,5.57
2023-01-01T13:14:27.002Z,6.00
2023-01-01T13:17:00.119Z,5.30
2023-01-01T13:19:34.148Z,4.88
2023-01-01T13:22:42.524Z,6.10
2023-01-01T13:25:29.320Z,5.65
2023-01-01T13:28:06.831Z,5.63
2023-01-01T13:30:50.928Z,5.38
2023-01-01T13:33:29.180Z,5.05
2023-01-01T13:36:33.339Z,6.00
2023-01-01T13:39:02.693Z,5.97
2023-01-01T13:41:41.673Z,5.93
2023-01-01T13:44:21.021Z,5.50
2023-01-01T13:47:15.516Z,6.50
2023-01-01T13:50:05.133Z,6.03
2023-01-01T13:52:59.369Z,6.30
2023-01-01T13:55:48.419Z,5.60
2023-01-01T13:58:51.963Z,5.10
2023-01-01T14:02:04.471Z,5.72
2023-01-01T14:04:40.660Z,5.82
2023-01-01T14:07:50.056Z,5.85
2023-01-01T14:10:23.156Z,5.35
2023-01-01T14:12:53.698Z,5.07
2023-01-01T14:15:28.426Z,4.85
2023-01-01T14:18:00.575Z,4.80
2023-01-01T14:20:35.903Z,4.65
2023-01-01T14:23:10.494Z,6.72
2023-01-01T14:25:42.209Z,5.82
2023-01-01T14:28:20.418Z,4.57
2023-01-01T14:30:49.818Z,5.55
2023-01-01T14:33:27.296Z,4.80
2023-01-01T14:35:56.945Z,5.93
2023-01-01T14:38:28.884Z,4.90
2023-01-01T14:41:03.726Z,7.05
2023-01-01T14:43:32.591Z,6.07
2023-01-01T14:46:07.527Z,5.53
2023-01-01T14:48:45.093Z,6.10
2023-01-01T14:51:16.192Z,4.90
2023-01-01T14:53:48.001Z,5.75
2023-01-01T14:56:24.655Z,4.68
2023-01-01T14:58:53.270Z,6.32
2023-01-01T15:01:26.008Z,5.43
2023-01-01T15:04:11.378Z,5.00
2023-01-01T15:06:42.760Z,6.53
2023-01-01T15:09:17.981Z,5.93
2023-01-01T15:11:46.781Z,5.03
2023-01-01T15:14:32.657Z,5.75
2023-01-01T15:17:02.846Z,5.75
2023-01-01T15:19:31.465Z,6.00
2023-01-01T15:22:00.474Z,5.18
2023-01-01T15:24:30.580Z,5.18
2023-01-01T15:27:00.757Z,6.05
2023-01-01T15:29:31.706Z,7.50
2023-01-01T15:32:02.335Z,6.80
2023-01-01T15:34:32.784Z,6.40
2023-01-01T15:37:11.699Z,5.82
2023-01-01T15:39:49.242Z,6.55
2023-01-01T15:42:32.825Z,7.15
2023-01-01T15:45:21.441Z,6.65
2023-01-01T15:47:50.682Z,5.05
2023-01-01T15:50:26.024Z,5.07
2023-01-01T15:52:58.218Z,6.28
2023-01-01T15:55:32.621Z,4.57
2023-01-01T15:58:01.522Z,5.40
2023-01-01T16:00:31.752Z,5.40
2023-01-01T16:03:04.192Z,5.15
2023-01-01T16:05:33.196Z,6.25
2023-01-01T16:08:03.254Z,5.95
2023-01-01T16:10:33.375Z,5.25
2023-01-01T16:13:01.643Z,8.88
2023-01-01T16:15:30.105Z,6.57
2023-01-01T16:17:58.714Z,6.95
2023-01-01T16:20:27.748Z,5.60
2023-01-01T16:22:56.331Z,4.97
2023-01-01T16:25:24.923Z,5.55
2023-01-01T16:27:54.490Z,5.25
2023-01-01T16:30:26.974Z,7.10
2023-01-01T16:32:55.305Z,5.28
2023-01-01T16:35:23.856Z,6.20
2023-01-01T16:37:52.473Z,5.32
2023-01-01T16:40:20.772Z,5.40
2023-01-01T16:42:49.497Z,5.35
2023-01-01T16:45:20.146Z,6.03
2023-01-01T16:47:48.677Z,6.00
2023-01-01T16:50:16.921Z,4.47
2023-01-01T16:52:45.490Z,5.32
2023-01-01T16:55:14.358Z,4.47
2023-01-01T16:57:43.594Z,5.60
2023-01-01T17:00:13.195Z,5.97
2023-01-01T17:02:43.184Z,5.60
2023-01-01T17:05:12.477Z,5.07
2023-01-01T17:07:41.187Z,4.30
2023-01-01T17:10:10.081Z,4.18
2023-01-01T17:12:38.220Z,5.05
2023-01-01T17:15:08.639Z,5.13
2023-01-01T17:17:36.758Z,4.85
2023-01-01T17:20:16.870Z,4.70
2023-01-01T17:22:51.183Z,4.53
2023-01-01T17:25:19.568Z,5.18
2023-01-01T17:27:48.368Z,5.10
2023-01-01T17:30:17.032Z,4.15
2023-01-01T17:32:45.426Z,4.70
2023-01-01T17:35:15.364Z,5.68
2023-01-01T17:37:43.680Z,4.55
2023-01-01T17:40:12.773Z,5.05
2023-01-01T17:42:40.992Z,6.22
2023-01-01T17:45:10.807Z,4.75
2023-01-01T17:47:39.094Z,4.70
2023-01-01T17:50:08.134Z,5.22
2023-01-01T17:52:37.900Z,4.85
2023-01-01T17:55:07.642Z,4.13
2023-01-01T17:57:35.698Z,4.18
2023-01-01T18:00:05.280Z,4.15
2023-01-01T18:02:41.502Z,4.97
2023-01-01T18:05:10.141Z,5.85
2023-01-01T18:07:40.152Z,4.05
2023-01-01T18:10:09.217Z,5.28
2023-01-01T18:12:37.651Z,5.85
2023-01-01T18:15:07.279Z,4.50
2023-01-01T18:17:35.591Z,4.18
2023-01-01T18:20:04.099Z,4.03
2023-01-01T18:22:33.280Z,4.05
2023-01-01T18:25:06.342Z,3.97
2023-01-01T18:27:35.206Z,3.97
2023-01-01T18:30:04.303Z,4.18
2023-01-01T18:32:33.161Z,4.05
2023-01-01T18:35:01.425Z,3.85
2023-01-01T18:37:31.255Z,3.88
2023-01-01T18:40:00.217Z,4.15
2023-01-01T18:42:40.360Z,3.67
2023-01-01T18:45:16.273Z,3.72
2023-01-01T18:47:46.784Z,4.03
2023-01-01T18:50:35.912Z,4.82
2023-01-01T18:53:18.808Z,4.93
2023-01-01T18:55:47.905Z,4.70
2023-01-01T18:58:20.093Z,4.15
2023-01-01T19:00:49.636Z,4.60
2023-01-01T19:03:22.875Z,4.55
2023-01-01T19:05:51.489Z,5.00
2023-01-01T19:08:22.494Z,11.60
2023-01-01T19:10:53.713Z,7.72
2023-01-01T19:13:25.402Z,6.25
2023-01-01T19:15:58.671Z,6.10
2023-01-01T19:18:31.925Z,6.22
2023-01-01T19:21:03.846Z,6.88
2023-01-01T19:23:33.114Z,6.05
2023-01-01T19:26:04.347Z,7.68
2023-01-01T19:28:36.957Z,6.35
2023-01-01T19:31:08.111Z,5.80
2023-01-01T19:33:37.234Z,5.78
2023-01-01T19:36:05.730Z,6.55
2023-01-01T19:38:34.228Z,7.30
2023-01-01T19:41:03.022Z,7.03
2023-01-01T19:43:31.242Z,7.40
2023-01-01T19:46:00.948Z,6.50
2023-01-01T19:48:30.135Z,5.95
2023-01-01T19:50:58.921Z,6.85
2023-01-01T19:53:27.362Z,7.30
2023-01-01T19:55:55.943Z,7.05
2023-01-01T19:58:24.629Z,6.50
2023-01-01T20:00:53.444Z,6.80
2023-01-01T20:03:52.917Z,7.15
2023-01-01T20:06:12.944Z,5.80
2023-01-01T20:08:41.660Z,6.70
2023-01-01T20:11:10.480Z,7.60
2023-01-01T20:13:38.921Z,7.07
2023-01-01T20:16:07.958Z,7.55
2023-01-01T20:18:37.964Z,7.45
2023-01-01T20:21:26.631Z,7.28
2023-01-01T20:23:55.552Z,8.02
2023-01-01T20:26:26.263Z,6.65
2023-01-01T20:29:12.199Z,8.55
2023-01-01T20:31:42.085Z,8.10
2023-01-01T20:34:12.122Z,7.20
2023-01-01T20:36:58.065Z,7.95
2023-01-01T20:39:26.580Z,8.02
2023-01-01T20:41:56.271Z,7.20
2023-01-01T20:44:24.427Z,8.40
2023-01-01T20:46:52.638Z,7.50
2023-01-01T20:49:22.708Z,7.90
2023-01-01T20:51:53.107Z,8.20
2023-01-01T20:54:22.469Z,8.65
2023-01-01T20:56:50.928Z,8.50
2023-01-01T20:59:37.050Z,9.00
2023-01-01T21:02:06.508Z,7.95
2023-01-01T21:04:38.984Z,7.60
2023-01-01T21:07:09.416Z,8.50
2023-01-01T21:09:37.952Z,8.75
2023-01-01T21:12:07.181Z,8.52
2023-01-01T21:14:36.240Z,7.10
2023-01-01T21:17:17.968Z,8.45
2023-01-01T21:19:47.597Z,7.85
2023-01-01T21:22:16.192Z,7.80
2023-01-01T21:24:47.358Z,8.25
2023-01-01T21:27:24.872Z,8.15
2023-01-01T21:29:57.240Z,9.80
2023-01-01T21:32:29.305Z,8.13
2023-01-01T21:34:59.416Z,8.13
2023-01-01T21:37:48.138Z,7.95
2023-01-01T21:40:34.677Z,8.13
2023-01-01T21:43:25.397Z,8.55
2023-01-01T21:45:54.871Z,8.35
2023-01-01T21:48:28.561Z,8.07
2023-01-01T21:50:58.963Z,8.02
2023-01-01T21:53:30.273Z,9.30
2023-01-01T21:55:58.691Z,7.70
2023-01-01T21:58:46.389Z,8.68
2023-01-01T22:01:22.401Z,8.48
2023-01-01T22:03:53.379Z,9.35
2023-01-01T22:06:23.728Z,8.55
2023-01-01T22:08:52.126Z,9.38
2023-01-01T22:11:26.761Z,8.77
2023-01-01T22:13:56.165Z,8.63
2023-01-01T22:16:29.290Z,9.00
2023-01-01T22:18:57.807Z,10.20
2023-01-01T22:21:27.383Z,9.68
2023-01-01T22:24:00.765Z,9.35
2023-01-01T22:26:32.430Z,8.20
2023-01-01T22:29:04.427Z,7.97
2023-01-01T22:31:36.435Z,7.22
2023-01-01T22:34:06.785Z,7.53
2023-01-01T22:36:38.162Z,8.43
2023-01-01T22:39:14.780Z,8.82
2023-01-01T22:41:43.432Z,8.02
2023-01-01T22:44:13.143Z,9.93
2023-01-01T22:46:42.810Z,10.02
2023-01-01T22:49:20.267Z,9.10
2023-01-01T22:51:54.757Z,7.90
2023-01-01T22:54:23.120Z,7.75
2023-01-01T22:56:51.467Z,8.95
2023-01-01T22:59:19.944Z,8.48
2023-01-01T23:01:48.627Z,9.85
2023-01-01T23:04:17.583Z,7.43
2023-01-01T23:06:45.844Z,9.68
2023-01-01T23:09:15.581Z,7.75
2023-01-01T23:11:44.011Z,9.40
2023-01-01T23:14:31.449Z,8.32
2023-01-01T23:17:03.022Z,7.57
2023-01-01T23:19:31.199Z,8.50
2023-01-01T23:22:00.612Z,8.65
2023-01-01T23:24:31.372Z,8.77
2023-01-01T23:27:00.834Z,8.98
2023-01-01T23:29:32.284Z,11.18
2023-01-01T23:32:01.599Z,9.65
2023-01-01T23:34:30.443Z,9.35
2023-01-01T23:36:59.524Z,8.98
2023-01-01T23:39:29.199Z,11.02
2023-01-01T23:41:57.715Z,10.35
2023-01-01T23:44:25.865Z,9.20
2023-01-01T23:46:54.577Z,9.43
2023-01-01T23:49:23.599Z,8.43
2023-01-01T23:51:52.816Z,7.88
2023-01-01T23:54:21.026Z,8.57
2023-01-01T23:56:50.736Z,8.52
2023-01-01T23:59:19.021Z,9.77
